sensor_id;sensor_type;location;lat;lon;timestamp;P1;durP1;ratioP1;P2;durP2;ratioP2
2201;SDS011;1107;48.654;9.250;2023-06-22T00:00:48;14.33;;;13.13;;
2201;SDS011;1107;48.654;9.250;2023-06-22T00:03:16;13.27;;;12.30;;
2201;SDS011;1107;48.654;9.250;2023-06-22T00:05:44;12.13;;;11.13;;
2201;SDS011;1107;48.654;9.250;2023-06-22T00:08:11;12.87;;;11.87;;
2201;SDS011;1107;48.654;9.250;2023-06-22T00:10:38;13.30;;;11.93;;
2201;SDS011;1107;48.654;9.250;2023-06-22T00:13:06;12.83;;;11.53;;
2201;SDS011;1107;48.654;9.250;2023-06-22T00:15:35;12.83;;;11.83;;
2201;SDS011;1107;48.654;9.250;2023-06-22T00:18:02;11.93;;;10.93;;
2201;SDS011;1107;48.654;9.250;2023-06-22T00:20:30;12.50;;;11.30;;
2201;SDS011;1107;48.654;9.250;2023-06-22T00:22:58;11.87;;;11.17;;
2201;SDS011;1107;48.654;9.250;2023-06-22T00:25:25;13.23;;;11.87;;
2201;SDS011;1107;48.654;9.250;2023-06-22T00:27:52;12.33;;;11.23;;
2201;SDS011;1107;48.654;9.250;2023-06-22T00:30:19;11.40;;;10.63;;
2201;SDS011;1107;48.654;9.250;2023-06-22T00:32:47;12.90;;;11.80;;
2201;SDS011;1107;48.654;9.250;2023-06-22T00:35:14;13.10;;;12.00;;
2201;SDS011;1107;48.654;9.250;2023-06-22T00:37:41;12.43;;;11.57;;
2201;SDS011;1107;48.654;9.250;2023-06-22T00:40:09;12.10;;;11.40;;
2201;SDS011;1107;48.654;9.250;2023-06-22T00:42:37;11.90;;;10.70;;
2201;SDS011;1107;48.654;9.250;2023-06-22T00:45:04;12.90;;;11.67;;
2201;SDS011;1107;48.654;9.250;2023-06-22T00:47:33;12.53;;;11.50;;
2201;SDS011;1107;48.654;9.250;2023-06-22T00:50:03;15.00;;;12.00;;
2201;SDS011;1107;48.654;9.250;2023-06-22T00:52:33;13.50;;;12.17;;
2201;SDS011;1107;48.654;9.250;2023-06-22T00:55:01;14.73;;;12.00;;
2201;SDS011;1107;48.654;9.250;2023-06-22T00:57:28;14.87;;;11.97;;
2201;SDS011;1107;48.654;9.250;2023-06-22T00:59:56;13.00;;;11.97;;
2201;SDS011;1107;48.654;9.250;2023-06-22T01:02:23;13.03;;;11.90;;
2201;SDS011;1107;48.654;9.250;2023-06-22T01:04:50;12.33;;;11.30;;
2201;SDS011;1107;48.654;9.250;2023-06-22T01:07:20;12.40;;;11.20;;
2201;SDS011;1107;48.654;9.250;2023-06-22T01:09:55;14.00;;;12.83;;
2201;SDS011;1107;48.654;9.250;2023-06-22T01:12:26;13.00;;;11.80;;
2201;SDS011;1107;48.654;9.250;2023-06-22T01:14:58;12.87;;;11.77;;
2201;SDS011;1107;48.654;9.250;2023-06-22T01:17:31;14.20;;;11.80;;
2201;SDS011;1107;48.654;9.250;2023-06-22T01:19:59;13.03;;;12.03;;
2201;SDS011;1107;48.654;9.250;2023-06-22T01:22:31;12.77;;;11.63;;
2201;SDS011;1107;48.654;9.250;2023-06-22T01:25:07;12.83;;;11.47;;
2201;SDS011;1107;48.654;9.250;2023-06-22T01:27:40;13.23;;;11.70;;
2201;SDS011;1107;48.654;9.250;2023-06-22T01:30:17;13.83;;;12.40;;
2201;SDS011;1107;48.654;9.250;2023-06-22T01:32:45;16.83;;;12.53;;
2201;SDS011;1107;48.654;9.250;2023-06-22T01:35:14;13.47;;;12.17;;
2201;SDS011;1107;48.654;9.250;2023-06-22T01:37:41;12.20;;;11.50;;
2201;SDS011;1107;48.654;9.250;2023-06-22T01:40:09;13.10;;;12.20;;
2201;SDS011;1107;48.654;9.250;2023-06-22T01:42:37;12.50;;;11.60;;
2201;SDS011;1107;48.654;9.250;2023-06-22T01:45:05;13.30;;;12.07;;
2201;SDS011;1107;48.654;9.250;2023-06-22T01:47:35;13.30;;;12.30;;
2201;SDS011;1107;48.654;9.250;2023-06-22T01:50:02;14.33;;;13.27;;
2201;SDS011;1107;48.654;9.250;2023-06-22T01:52:30;14.00;;;12.80;;
2201;SDS011;1107;48.654;9.250;2023-06-22T01:54:59;15.20;;;13.70;;
2201;SDS011;1107;48.654;9.250;2023-06-22T01:57:26;12.00;;;11.10;;
2201;SDS011;1107;48.654;9.250;2023-06-22T01:59:57;12.37;;;11.40;;
2201;SDS011;1107;48.654;9.250;2023-06-22T02:02:27;13.07;;;11.80;;
2201;SDS011;1107;48.654;9.250;2023-06-22T02:05:01;14.00;;;11.20;;
2201;SDS011;1107;48.654;9.250;2023-06-22T02:07:32;11.43;;;10.50;;
2201;SDS011;1107;48.654;9.250;2023-06-22T02:10:06;11.60;;;10.30;;
2201;SDS011;1107;48.654;9.250;2023-06-22T02:12:37;11.40;;;10.40;;
2201;SDS011;1107;48.654;9.250;2023-06-22T02:15:06;11.23;;;10.03;;
2201;SDS011;1107;48.654;9.250;2023-06-22T02:17:34;9.60;;;8.90;;
2201;SDS011;1107;48.654;9.250;2023-06-22T02:20:03;13.20;;;10.80;;
2201;SDS011;1107;48.654;9.250;2023-06-22T02:22:33;10.97;;;9.77;;
2201;SDS011;1107;48.654;9.250;2023-06-22T02:25:00;11.13;;;10.07;;
2201;SDS011;1107;48.654;9.250;2023-06-22T02:27:27;12.00;;;11.17;;
2201;SDS011;1107;48.654;9.250;2023-06-22T02:29:54;12.13;;;10.87;;
2201;SDS011;1107;48.654;9.250;2023-06-22T02:32:21;14.87;;;13.30;;
2201;SDS011;1107;48.654;9.250;2023-06-22T02:34:48;13.90;;;12.60;;
2201;SDS011;1107;48.654;9.250;2023-06-22T02:37:17;15.10;;;13.50;;
2201;SDS011;1107;48.654;9.250;2023-06-22T02:39:44;16.63;;;13.50;;
2201;SDS011;1107;48.654;9.250;2023-06-22T02:42:11;19.93;;;13.30;;
2201;SDS011;1107;48.654;9.250;2023-06-22T02:44:38;14.43;;;13.13;;
2201;SDS011;1107;48.654;9.250;2023-06-22T02:47:05;14.50;;;13.10;;
2201;SDS011;1107;48.654;9.250;2023-06-22T02:49:32;14.50;;;13.10;;
2201;SDS011;1107;48.654;9.250;2023-06-22T02:51:59;15.20;;;13.57;;
2201;SDS011;1107;48.654;9.250;2023-06-22T02:54:27;20.90;;;12.87;;
2201;SDS011;1107;48.654;9.250;2023-06-22T02:56:54;12.67;;;11.47;;
2201;SDS011;1107;48.654;9.250;2023-06-22T02:59:21;14.13;;;12.80;;
2201;SDS011;1107;48.654;9.250;2023-06-22T03:01:48;12.90;;;11.63;;
2201;SDS011;1107;48.654;9.250;2023-06-22T03:04:15;14.47;;;13.13;;
2201;SDS011;1107;48.654;9.250;2023-06-22T03:06:42;15.23;;;13.63;;
2201;SDS011;1107;48.654;9.250;2023-06-22T03:09:09;14.73;;;13.40;;
2201;SDS011;1107;48.654;9.250;2023-06-22T03:11:38;13.60;;;12.53;;
2201;SDS011;1107;48.654;9.250;2023-06-22T03:14:04;19.50;;;13.27;;
2201;SDS011;1107;48.654;9.250;2023-06-22T03:16:32;13.87;;;12.23;;
2201;SDS011;1107;48.654;9.250;2023-06-22T03:18:59;11.80;;;10.60;;
2201;SDS011;1107;48.654;9.250;2023-06-22T03:21:27;13.83;;;11.23;;
2201;SDS011;1107;48.654;9.250;2023-06-22T03:23:55;13.10;;;12.23;;
2201;SDS011;1107;48.654;9.250;2023-06-22T03:26:22;12.00;;;10.87;;
2201;SDS011;1107;48.654;9.250;2023-06-22T03:28:53;12.53;;;11.23;;
2201;SDS011;1107;48.654;9.250;2023-06-22T03:31:19;11.90;;;10.70;;
2201;SDS011;1107;48.654;9.250;2023-06-22T03:33:47;11.57;;;10.77;;
2201;SDS011;1107;48.654;9.250;2023-06-22T03:36:14;13.23;;;11.70;;
2201;SDS011;1107;48.654;9.250;2023-06-22T03:38:43;12.40;;;11.30;;
2201;SDS011;1107;48.654;9.250;2023-06-22T03:41:10;13.27;;;11.80;;
2201;SDS011;1107;48.654;9.250;2023-06-22T03:43:37;11.80;;;10.00;;
2201;SDS011;1107;48.654;9.250;2023-06-22T03:46:06;10.43;;;9.73;;
2201;SDS011;1107;48.654;9.250;2023-06-22T03:48:33;11.33;;;9.83;;
2201;SDS011;1107;48.654;9.250;2023-06-22T03:51:01;10.37;;;9.67;;
2201;SDS011;1107;48.654;9.250;2023-06-22T03:53:28;10.77;;;9.97;;
2201;SDS011;1107;48.654;9.250;2023-06-22T03:55:55;12.97;;;11.60;;
2201;SDS011;1107;48.654;9.250;2023-06-22T03:58:23;11.77;;;10.17;;
2201;SDS011;1107;48.654;9.250;2023-06-22T04:00:50;11.03;;;10.30;;
2201;SDS011;1107;48.654;9.250;2023-06-22T04:03:19;9.80;;;9.20;;
2201;SDS011;1107;48.654;9.250;2023-06-22T04:05:47;10.60;;;10.00;;
2201;SDS011;1107;48.654;9.250;2023-06-22T04:08:14;10.63;;;9.70;;
2201;SDS011;1107;48.654;9.250;2023-06-22T04:10:41;10.47;;;9.63;;
2201;SDS011;1107;48.654;9.250;2023-06-22T04:13:08;11.80;;;10.70;;
2201;SDS011;1107;48.654;9.250;2023-06-22T04:15:35;12.63;;;11.80;;
2201;SDS011;1107;48.654;9.250;2023-06-22T04:18:02;12.03;;;10.93;;
2201;SDS011;1107;48.654;9.250;2023-06-22T04:20:30;12.33;;;11.13;;
2201;SDS011;1107;48.654;9.250;2023-06-22T04:22:57;10.43;;;9.70;;
2201;SDS011;1107;48.654;9.250;2023-06-22T04:25:24;11.57;;;10.83;;
2201;SDS011;1107;48.654;9.250;2023-06-22T04:27:51;11.20;;;10.30;;
2201;SDS011;1107;48.654;9.250;2023-06-22T04:30:18;12.33;;;11.20;;
2201;SDS011;1107;48.654;9.250;2023-06-22T04:32:45;11.73;;;10.57;;
2201;SDS011;1107;48.654;9.250;2023-06-22T04:35:22;11.97;;;10.43;;
2201;SDS011;1107;48.654;9.250;2023-06-22T04:37:52;11.50;;;10.57;;
2201;SDS011;1107;48.654;9.250;2023-06-22T04:40:21;10.73;;;10.00;;
2201;SDS011;1107;48.654;9.250;2023-06-22T04:42:48;17.10;;;11.20;;
2201;SDS011;1107;48.654;9.250;2023-06-22T04:45:18;10.90;;;9.90;;
2201;SDS011;1107;48.654;9.250;2023-06-22T04:47:46;10.87;;;10.23;;
2201;SDS011;1107;48.654;9.250;2023-06-22T04:50:13;9.57;;;8.93;;
2201;SDS011;1107;48.654;9.250;2023-06-22T04:52:40;10.90;;;9.97;;
2201;SDS011;1107;48.654;9.250;2023-06-22T04:55:08;10.67;;;9.80;;
2201;SDS011;1107;48.654;9.250;2023-06-22T04:57:35;9.83;;;9.03;;
2201;SDS011;1107;48.654;9.250;2023-06-22T05:00:05;10.30;;;9.50;;
2201;SDS011;1107;48.654;9.250;2023-06-22T05:02:41;10.63;;;9.63;;
2201;SDS011;1107;48.654;9.250;2023-06-22T05:05:09;10.37;;;9.60;;
2201;SDS011;1107;48.654;9.250;2023-06-22T05:07:38;9.77;;;9.17;;
2201;SDS011;1107;48.654;9.250;2023-06-22T05:10:09;10.67;;;9.90;;
2201;SDS011;1107;48.654;9.250;2023-06-22T05:12:38;9.13;;;8.60;;
2201;SDS011;1107;48.654;9.250;2023-06-22T05:15:06;14.53;;;9.67;;
2201;SDS011;1107;48.654;9.250;2023-06-22T05:17:34;9.03;;;8.40;;
2201;SDS011;1107;48.654;9.250;2023-06-22T05:20:01;8.50;;;7.90;;
2201;SDS011;1107;48.654;9.250;2023-06-22T05:22:31;9.80;;;9.03;;
2201;SDS011;1107;48.654;9.250;2023-06-22T05:24:58;9.30;;;8.47;;
2201;SDS011;1107;48.654;9.250;2023-06-22T05:27:26;9.53;;;8.60;;
2201;SDS011;1107;48.654;9.250;2023-06-22T05:29:53;9.23;;;8.60;;
2201;SDS011;1107;48.654;9.250;2023-06-22T05:32:20;10.40;;;9.60;;
2201;SDS011;1107;48.654;9.250;2023-06-22T05:34:47;9.07;;;8.57;;
2201;SDS011;1107;48.654;9.250;2023-06-22T05:37:14;9.60;;;8.70;;
2201;SDS011;1107;48.654;9.250;2023-06-22T05:39:41;9.73;;;9.03;;
2201;SDS011;1107;48.654;9.250;2023-06-22T05:42:08;9.13;;;8.53;;
2201;SDS011;1107;48.654;9.250;2023-06-22T05:44:36;8.80;;;8.30;;
2201;SDS011;1107;48.654;9.250;2023-06-22T05:47:04;10.83;;;8.83;;
2201;SDS011;1107;48.654;9.250;2023-06-22T05:49:31;12.50;;;8.93;;
2201;SDS011;1107;48.654;9.250;2023-06-22T05:51:58;7.43;;;7.03;;
2201;SDS011;1107;48.654;9.250;2023-06-22T05:54:26;9.53;;;8.73;;
2201;SDS011;1107;48.654;9.250;2023-06-22T05:56:53;8.00;;;7.50;;
2201;SDS011;1107;48.654;9.250;2023-06-22T05:59:20;8.50;;;8.00;;
2201;SDS011;1107;48.654;9.250;2023-06-22T06:01:49;9.47;;;8.50;;
2201;SDS011;1107;48.654;9.250;2023-06-22T06:04:16;8.20;;;7.63;;
2201;SDS011;1107;48.654;9.250;2023-06-22T06:06:43;9.57;;;8.90;;
2201;SDS011;1107;48.654;9.250;2023-06-22T06:09:12;9.30;;;8.47;;
2201;SDS011;1107;48.654;9.250;2023-06-22T06:11:39;8.30;;;7.53;;
2201;SDS011;1107;48.654;9.250;2023-06-22T06:14:06;8.10;;;7.37;;
2201;SDS011;1107;48.654;9.250;2023-06-22T06:16:33;7.10;;;6.60;;
2201;SDS011;1107;48.654;9.250;2023-06-22T06:19:01;8.80;;;7.47;;
2201;SDS011;1107;48.654;9.250;2023-06-22T06:21:28;12.43;;;7.33;;
2201;SDS011;1107;48.654;9.250;2023-06-22T06:23:55;6.67;;;6.27;;
2201;SDS011;1107;48.654;9.250;2023-06-22T06:26:22;7.77;;;7.37;;
2201;SDS011;1107;48.654;9.250;2023-06-22T06:28:52;8.13;;;7.43;;
2201;SDS011;1107;48.654;9.250;2023-06-22T06:31:19;7.70;;;7.10;;
2201;SDS011;1107;48.654;9.250;2023-06-22T06:33:46;7.33;;;6.73;;
2201;SDS011;1107;48.654;9.250;2023-06-22T06:36:15;7.20;;;6.80;;
2201;SDS011;1107;48.654;9.250;2023-06-22T06:38:42;10.23;;;6.67;;
2201;SDS011;1107;48.654;9.250;2023-06-22T06:41:08;6.73;;;6.13;;
2201;SDS011;1107;48.654;9.250;2023-06-22T06:43:35;7.47;;;6.63;;
2201;SDS011;1107;48.654;9.250;2023-06-22T06:46:02;6.33;;;5.93;;
2201;SDS011;1107;48.654;9.250;2023-06-22T06:48:29;7.20;;;6.73;;
2201;SDS011;1107;48.654;9.250;2023-06-22T06:50:56;6.40;;;6.00;;
2201;SDS011;1107;48.654;9.250;2023-06-22T06:53:25;7.00;;;6.60;;
2201;SDS011;1107;48.654;9.250;2023-06-22T06:55:53;7.83;;;6.00;;
2201;SDS011;1107;48.654;9.250;2023-06-22T06:58:20;7.30;;;6.70;;
2201;SDS011;1107;48.654;9.250;2023-06-22T07:00:48;6.67;;;6.07;;
2201;SDS011;1107;48.654;9.250;2023-06-22T07:03:15;5.97;;;5.40;;
2201;SDS011;1107;48.654;9.250;2023-06-22T07:05:41;6.00;;;5.43;;
2201;SDS011;1107;48.654;9.250;2023-06-22T07:08:08;5.83;;;5.33;;
2201;SDS011;1107;48.654;9.250;2023-06-22T07:10:37;5.47;;;5.17;;
2201;SDS011;1107;48.654;9.250;2023-06-22T07:13:03;5.77;;;5.47;;
2201;SDS011;1107;48.654;9.250;2023-06-22T07:15:30;6.30;;;5.83;;
2201;SDS011;1107;48.654;9.250;2023-06-22T07:17:57;5.87;;;5.47;;
2201;SDS011;1107;48.654;9.250;2023-06-22T07:20:24;6.40;;;5.83;;
2201;SDS011;1107;48.654;9.250;2023-06-22T07:22:51;6.10;;;5.70;;
2201;SDS011;1107;48.654;9.250;2023-06-22T07:25:18;5.70;;;5.20;;
2201;SDS011;1107;48.654;9.250;2023-06-22T07:27:57;6.03;;;5.50;;
2201;SDS011;1107;48.654;9.250;2023-06-22T07:30:26;5.50;;;5.20;;
2201;SDS011;1107;48.654;9.250;2023-06-22T07:32:53;6.60;;;6.30;;
2201;SDS011;1107;48.654;9.250;2023-06-22T07:35:20;8.70;;;6.53;;
2201;SDS011;1107;48.654;9.250;2023-06-22T07:37:47;6.10;;;5.60;;
2201;SDS011;1107;48.654;9.250;2023-06-22T07:40:14;6.33;;;5.93;;
2201;SDS011;1107;48.654;9.250;2023-06-22T07:42:41;5.80;;;5.40;;
2201;SDS011;1107;48.654;9.250;2023-06-22T07:45:10;6.03;;;5.70;;
2201;SDS011;1107;48.654;9.250;2023-06-22T07:47:37;6.50;;;6.07;;
2201;SDS011;1107;48.654;9.250;2023-06-22T07:50:04;6.23;;;5.93;;
2201;SDS011;1107;48.654;9.250;2023-06-22T07:52:31;7.50;;;7.00;;
2201;SDS011;1107;48.654;9.250;2023-06-22T07:54:58;6.53;;;6.03;;
2201;SDS011;1107;48.654;9.250;2023-06-22T07:57:25;6.73;;;6.27;;
2201;SDS011;1107;48.654;9.250;2023-06-22T07:59:58;7.43;;;6.47;;
2201;SDS011;1107;48.654;9.250;2023-06-22T08:02:26;6.37;;;6.00;;
2201;SDS011;1107;48.654;9.250;2023-06-22T08:04:53;8.03;;;7.03;;
2201;SDS011;1107;48.654;9.250;2023-06-22T08:07:20;7.53;;;6.37;;
2201;SDS011;1107;48.654;9.250;2023-06-22T08:09:47;7.60;;;6.93;;
2201;SDS011;1107;48.654;9.250;2023-06-22T08:12:15;6.80;;;6.40;;
2201;SDS011;1107;48.654;9.250;2023-06-22T08:14:42;8.07;;;7.17;;
2201;SDS011;1107;48.654;9.250;2023-06-22T08:17:11;7.67;;;6.83;;
2201;SDS011;1107;48.654;9.250;2023-06-22T08:19:39;6.60;;;6.20;;
2201;SDS011;1107;48.654;9.250;2023-06-22T08:22:07;6.60;;;6.20;;
2201;SDS011;1107;48.654;9.250;2023-06-22T08:24:33;6.30;;;5.90;;
2201;SDS011;1107;48.654;9.250;2023-06-22T08:27:00;12.53;;;5.83;;
2201;SDS011;1107;48.654;9.250;2023-06-22T08:29:27;7.63;;;6.87;;
2201;SDS011;1107;48.654;9.250;2023-06-22T08:31:54;8.07;;;7.27;;
2201;SDS011;1107;48.654;9.250;2023-06-22T08:34:21;7.13;;;6.63;;
2201;SDS011;1107;48.654;9.250;2023-06-22T08:36:51;7.87;;;7.10;;
2201;SDS011;1107;48.654;9.250;2023-06-22T08:39:18;10.90;;;7.50;;
2201;SDS011;1107;48.654;9.250;2023-06-22T08:41:46;7.47;;;6.80;;
2201;SDS011;1107;48.654;9.250;2023-06-22T08:44:13;9.33;;;6.67;;
2201;SDS011;1107;48.654;9.250;2023-06-22T08:46:40;7.33;;;6.87;;
2201;SDS011;1107;48.654;9.250;2023-06-22T08:49:07;6.40;;;6.00;;
2201;SDS011;1107;48.654;9.250;2023-06-22T08:51:35;7.40;;;7.00;;
2201;SDS011;1107;48.654;9.250;2023-06-22T08:54:03;7.73;;;7.10;;
2201;SDS011;1107;48.654;9.250;2023-06-22T08:56:30;7.93;;;6.97;;
2201;SDS011;1107;48.654;9.250;2023-06-22T08:58:57;7.40;;;6.50;;
2201;SDS011;1107;48.654;9.250;2023-06-22T09:01:25;7.00;;;6.50;;
2201;SDS011;1107;48.654;9.250;2023-06-22T09:03:52;7.40;;;6.80;;
2201;SDS011;1107;48.654;9.250;2023-06-22T09:06:22;7.07;;;6.47;;
2201;SDS011;1107;48.654;9.250;2023-06-22T09:08:49;6.97;;;6.43;;
2201;SDS011;1107;48.654;9.250;2023-06-22T09:11:18;7.50;;;7.00;;
2201;SDS011;1107;48.654;9.250;2023-06-22T09:13:45;7.23;;;6.53;;
2201;SDS011;1107;48.654;9.250;2023-06-22T09:16:12;6.77;;;6.20;;
2201;SDS011;1107;48.654;9.250;2023-06-22T09:18:39;7.23;;;6.50;;
2201;SDS011;1107;48.654;9.250;2023-06-22T09:21:07;7.70;;;7.10;;
2201;SDS011;1107;48.654;9.250;2023-06-22T09:23:34;7.63;;;6.10;;
2201;SDS011;1107;48.654;9.250;2023-06-22T09:26:01;8.60;;;7.70;;
2201;SDS011;1107;48.654;9.250;2023-06-22T09:28:30;7.73;;;7.13;;
2201;SDS011;1107;48.654;9.250;2023-06-22T09:30:58;7.40;;;6.70;;
2201;SDS011;1107;48.654;9.250;2023-06-22T09:33:25;7.87;;;7.10;;
2201;SDS011;1107;48.654;9.250;2023-06-22T09:35:52;8.07;;;6.77;;
2201;SDS011;1107;48.654;9.250;2023-06-22T09:38:19;7.93;;;7.43;;
2201;SDS011;1107;48.654;9.250;2023-06-22T09:40:46;7.90;;;7.30;;
2201;SDS011;1107;48.654;9.250;2023-06-22T09:43:13;7.57;;;7.17;;
2201;SDS011;1107;48.654;9.250;2023-06-22T09:45:41;7.37;;;6.87;;
2201;SDS011;1107;48.654;9.250;2023-06-22T09:48:08;8.83;;;7.97;;
2201;SDS011;1107;48.654;9.250;2023-06-22T09:50:35;9.20;;;7.40;;
2201;SDS011;1107;48.654;9.250;2023-06-22T09:53:02;7.63;;;7.23;;
2201;SDS011;1107;48.654;9.250;2023-06-22T09:55:29;7.53;;;7.00;;
2201;SDS011;1107;48.654;9.250;2023-06-22T09:57:56;7.53;;;7.00;;
2201;SDS011;1107;48.654;9.250;2023-06-22T10:00:23;7.50;;;6.90;;
2201;SDS011;1107;48.654;9.250;2023-06-22T10:02:53;8.40;;;7.60;;
2201;SDS011;1107;48.654;9.250;2023-06-22T10:05:20;7.33;;;6.90;;
2201;SDS011;1107;48.654;9.250;2023-06-22T10:07:47;8.73;;;6.90;;
2201;SDS011;1107;48.654;9.250;2023-06-22T10:10:14;8.30;;;7.47;;
2201;SDS011;1107;48.654;9.250;2023-06-22T10:12:42;8.03;;;7.23;;
2201;SDS011;1107;48.654;9.250;2023-06-22T10:15:11;13.13;;;7.53;;
2201;SDS011;1107;48.654;9.250;2023-06-22T10:17:38;13.73;;;6.90;;
2201;SDS011;1107;48.654;9.250;2023-06-22T10:20:07;8.27;;;7.50;;
2201;SDS011;1107;48.654;9.250;2023-06-22T10:22:37;8.37;;;7.63;;
2201;SDS011;1107;48.654;9.250;2023-06-22T10:25:05;11.60;;;7.10;;
2201;SDS011;1107;48.654;9.250;2023-06-22T10:27:33;11.83;;;7.70;;
2201;SDS011;1107;48.654;9.250;2023-06-22T10:30:00;9.20;;;8.50;;
2201;SDS011;1107;48.654;9.250;2023-06-22T10:32:27;7.83;;;7.27;;
2201;SDS011;1107;48.654;9.250;2023-06-22T10:34:54;9.67;;;7.50;;
2201;SDS011;1107;48.654;9.250;2023-06-22T10:37:22;8.60;;;7.77;;
2201;SDS011;1107;48.654;9.250;2023-06-22T10:39:49;11.27;;;6.60;;
2201;SDS011;1107;48.654;9.250;2023-06-22T10:42:16;12.80;;;8.00;;
2201;SDS011;1107;48.654;9.250;2023-06-22T10:44:43;8.27;;;7.57;;
2201;SDS011;1107;48.654;9.250;2023-06-22T10:47:10;8.80;;;7.40;;
2201;SDS011;1107;48.654;9.250;2023-06-22T10:49:37;8.70;;;7.80;;
2201;SDS011;1107;48.654;9.250;2023-06-22T10:52:05;7.70;;;6.97;;
2201;SDS011;1107;48.654;9.250;2023-06-22T10:54:34;9.10;;;8.10;;
2201;SDS011;1107;48.654;9.250;2023-06-22T10:57:02;12.17;;;7.73;;
2201;SDS011;1107;48.654;9.250;2023-06-22T10:59:30;9.30;;;7.60;;
2201;SDS011;1107;48.654;9.250;2023-06-22T11:01:57;8.17;;;7.40;;
2201;SDS011;1107;48.654;9.250;2023-06-22T11:04:24;9.03;;;8.43;;
2201;SDS011;1107;48.654;9.250;2023-06-22T11:06:51;10.70;;;7.70;;
2201;SDS011;1107;48.654;9.250;2023-06-22T11:09:18;9.03;;;8.03;;
2201;SDS011;1107;48.654;9.250;2023-06-22T11:11:47;7.73;;;7.07;;
2201;SDS011;1107;48.654;9.250;2023-06-22T11:14:15;8.77;;;7.67;;
2201;SDS011;1107;48.654;9.250;2023-06-22T11:16:43;11.90;;;7.50;;
2201;SDS011;1107;48.654;9.250;2023-06-22T11:19:11;10.90;;;7.50;;
2201;SDS011;1107;48.654;9.250;2023-06-22T11:21:38;8.33;;;7.57;;
2201;SDS011;1107;48.654;9.250;2023-06-22T11:24:05;17.30;;;8.10;;
2201;SDS011;1107;48.654;9.250;2023-06-22T11:26:32;9.00;;;7.57;;
2201;SDS011;1107;48.654;9.250;2023-06-22T11:29:01;11.07;;;7.50;;
2201;SDS011;1107;48.654;9.250;2023-06-22T11:31:30;12.77;;;7.60;;
2201;SDS011;1107;48.654;9.250;2023-06-22T11:33:57;8.23;;;7.60;;
2201;SDS011;1107;48.654;9.250;2023-06-22T11:36:24;8.77;;;7.40;;
2201;SDS011;1107;48.654;9.250;2023-06-22T11:38:52;11.90;;;7.10;;
2201;SDS011;1107;48.654;9.250;2023-06-22T11:41:19;8.23;;;7.63;;
2201;SDS011;1107;48.654;9.250;2023-06-22T11:43:46;7.77;;;7.00;;
2201;SDS011;1107;48.654;9.250;2023-06-22T11:46:14;7.53;;;6.83;;
2201;SDS011;1107;48.654;9.250;2023-06-22T11:48:41;8.47;;;7.60;;
2201;SDS011;1107;48.654;9.250;2023-06-22T11:51:08;15.47;;;7.80;;
2201;SDS011;1107;48.654;9.250;2023-06-22T11:53:35;7.83;;;7.20;;
2201;SDS011;1107;48.654;9.250;2023-06-22T11:56:02;21.40;;;7.23;;
2201;SDS011;1107;48.654;9.250;2023-06-22T11:58:29;9.30;;;6.73;;
2201;SDS011;1107;48.654;9.250;2023-06-22T12:00:56;8.90;;;8.20;;
2201;SDS011;1107;48.654;9.250;2023-06-22T12:03:24;7.23;;;6.40;;
2201;SDS011;1107;48.654;9.250;2023-06-22T12:05:51;8.67;;;7.77;;
2201;SDS011;1107;48.654;9.250;2023-06-22T12:08:19;9.57;;;7.70;;
2201;SDS011;1107;48.654;9.250;2023-06-22T12:10:45;8.20;;;7.50;;
2201;SDS011;1107;48.654;9.250;2023-06-22T12:13:12;11.27;;;7.83;;
2201;SDS011;1107;48.654;9.250;2023-06-22T12:15:39;7.30;;;6.80;;
2201;SDS011;1107;48.654;9.250;2023-06-22T12:18:06;11.70;;;7.50;;
2201;SDS011;1107;48.654;9.250;2023-06-22T12:20:35;11.53;;;7.20;;
2201;SDS011;1107;48.654;9.250;2023-06-22T12:23:02;17.43;;;6.97;;
2201;SDS011;1107;48.654;9.250;2023-06-22T12:25:29;7.87;;;7.10;;
2201;SDS011;1107;48.654;9.250;2023-06-22T12:27:56;17.13;;;7.33;;
2201;SDS011;1107;48.654;9.250;2023-06-22T12:30:23;10.03;;;6.63;;
2201;SDS011;1107;48.654;9.250;2023-06-22T12:32:50;10.50;;;6.40;;
2201;SDS011;1107;48.654;9.250;2023-06-22T12:35:17;8.83;;;7.00;;
2201;SDS011;1107;48.654;9.250;2023-06-22T12:37:45;7.57;;;6.83;;
2201;SDS011;1107;48.654;9.250;2023-06-22T12:40:12;11.13;;;7.63;;
2201;SDS011;1107;48.654;9.250;2023-06-22T12:42:39;12.23;;;7.50;;
2201;SDS011;1107;48.654;9.250;2023-06-22T12:45:07;13.30;;;7.57;;
2201;SDS011;1107;48.654;9.250;2023-06-22T12:47:35;14.00;;;8.20;;
2201;SDS011;1107;48.654;9.250;2023-06-22T12:50:01;19.80;;;8.27;;
2201;SDS011;1107;48.654;9.250;2023-06-22T12:52:29;9.53;;;7.60;;
2201;SDS011;1107;48.654;9.250;2023-06-22T12:54:58;14.10;;;8.10;;
2201;SDS011;1107;48.654;9.250;2023-06-22T12:57:25;11.63;;;7.90;;
2201;SDS011;1107;48.654;9.250;2023-06-22T12:59:52;12.73;;;8.60;;
2201;SDS011;1107;48.654;9.250;2023-06-22T13:02:19;17.57;;;7.23;;
2201;SDS011;1107;48.654;9.250;2023-06-22T13:04:46;7.83;;;7.23;;
2201;SDS011;1107;48.654;9.250;2023-06-22T13:07:13;14.27;;;8.40;;
2201;SDS011;1107;48.654;9.250;2023-06-22T13:09:40;8.13;;;7.13;;
2201;SDS011;1107;48.654;9.250;2023-06-22T13:12:08;18.10;;;7.43;;
2201;SDS011;1107;48.654;9.250;2023-06-22T13:14:35;8.27;;;7.23;;
2201;SDS011;1107;48.654;9.250;2023-06-22T13:17:02;14.00;;;6.90;;
2201;SDS011;1107;48.654;9.250;2023-06-22T13:19:29;7.00;;;6.47;;
2201;SDS011;1107;48.654;9.250;2023-06-22T13:21:57;10.93;;;6.70;;
2201;SDS011;1107;48.654;9.250;2023-06-22T13:24:25;7.47;;;6.97;;
2201;SDS011;1107;48.654;9.250;2023-06-22T13:26:52;8.40;;;6.83;;
2201;SDS011;1107;48.654;9.250;2023-06-22T13:29:21;6.83;;;6.20;;
2201;SDS011;1107;48.654;9.250;2023-06-22T13:31:48;11.23;;;7.93;;
2201;SDS011;1107;48.654;9.250;2023-06-22T13:34:15;7.07;;;6.47;;
2201;SDS011;1107;48.654;9.250;2023-06-22T13:36:42;22.67;;;6.93;;
2201;SDS011;1107;48.654;9.250;2023-06-22T13:39:09;17.70;;;6.80;;
2201;SDS011;1107;48.654;9.250;2023-06-22T13:41:36;8.80;;;6.70;;
2201;SDS011;1107;48.654;9.250;2023-06-22T13:44:02;11.90;;;6.50;;
2201;SDS011;1107;48.654;9.250;2023-06-22T13:46:32;6.50;;;6.10;;
2201;SDS011;1107;48.654;9.250;2023-06-22T13:48:59;16.70;;;7.20;;
2201;SDS011;1107;48.654;9.250;2023-06-22T13:51:26;7.40;;;5.80;;
2201;SDS011;1107;48.654;9.250;2023-06-22T13:53:53;7.37;;;6.40;;
2201;SDS011;1107;48.654;9.250;2023-06-22T13:56:20;9.93;;;7.07;;
2201;SDS011;1107;48.654;9.250;2023-06-22T13:58:47;15.10;;;7.17;;
2201;SDS011;1107;48.654;9.250;2023-06-22T14:01:14;9.20;;;7.67;;
2201;SDS011;1107;48.654;9.250;2023-06-22T14:03:42;9.77;;;6.87;;
2201;SDS011;1107;48.654;9.250;2023-06-22T14:06:10;10.43;;;6.10;;
2201;SDS011;1107;48.654;9.250;2023-06-22T14:08:37;7.60;;;6.83;;
2201;SDS011;1107;48.654;9.250;2023-06-22T14:11:04;7.30;;;6.67;;
2201;SDS011;1107;48.654;9.250;2023-06-22T14:13:31;7.73;;;7.03;;
2201;SDS011;1107;48.654;9.250;2023-06-22T14:15:58;15.70;;;8.30;;
2201;SDS011;1107;48.654;9.250;2023-06-22T14:18:25;13.80;;;6.53;;
2201;SDS011;1107;48.654;9.250;2023-06-22T14:20:53;15.80;;;6.17;;
2201;SDS011;1107;48.654;9.250;2023-06-22T14:23:20;8.03;;;7.23;;
2201;SDS011;1107;48.654;9.250;2023-06-22T14:25:47;8.70;;;7.70;;
2201;SDS011;1107;48.654;9.250;2023-06-22T14:28:14;9.50;;;7.23;;
2201;SDS011;1107;48.654;9.250;2023-06-22T14:30:41;8.97;;;7.07;;
2201;SDS011;1107;48.654;9.250;2023-06-22T14:33:08;8.00;;;7.10;;
2201;SDS011;1107;48.654;9.250;2023-06-22T14:35:35;7.47;;;6.87;;
2201;SDS011;1107;48.654;9.250;2023-06-22T14:38:03;9.90;;;7.33;;
2201;SDS011;1107;48.654;9.250;2023-06-22T14:40:30;11.40;;;7.13;;
2201;SDS011;1107;48.654;9.250;2023-06-22T14:42:57;8.93;;;7.60;;
2201;SDS011;1107;48.654;9.250;2023-06-22T14:45:24;8.83;;;7.57;;
2201;SDS011;1107;48.654;9.250;2023-06-22T14:47:51;11.33;;;7.23;;
2201;SDS011;1107;48.654;9.250;2023-06-22T14:50:18;10.23;;;7.40;;
2201;SDS011;1107;48.654;9.250;2023-06-22T14:52:45;12.10;;;7.50;;
2201;SDS011;1107;48.654;9.250;2023-06-22T14:55:14;10.33;;;8.63;;
2201;SDS011;1107;48.654;9.250;2023-06-22T14:57:41;10.13;;;7.83;;
2201;SDS011;1107;48.654;9.250;2023-06-22T15:00:08;9.27;;;6.60;;
2201;SDS011;1107;48.654;9.250;2023-06-22T15:02:35;9.90;;;6.73;;
2201;SDS011;1107;48.654;9.250;2023-06-22T15:05:02;15.43;;;7.17;;
2201;SDS011;1107;48.654;9.250;2023-06-22T15:07:30;8.37;;;6.10;;